createdAt,value
2023-05-16T00:00:06.996Z,63.63
2023-05-16T00:02:40.096Z,64.38
2023-05-16T00:05:10.909Z,64.00
2023-05-16T00:07:41.229Z,64.29
2023-05-16T00:10:17.582Z,64.35
2023-05-16T00:12:52.074Z,65.33
2023-05-16T00:15:24.653Z,65.94
2023-05-16T00:17:59.678Z,65.23
2023-05-16T00:20:39.269Z,66.24
2023-05-16T00:23:09.230Z,65.55
2023-05-16T00:25:47.488Z,65.09
2023-05-16T00:28:18.033Z,64.49
2023-05-16T00:30:48.241Z,64.40
2023-05-16T00:33:19.533Z,64.56
2023-05-16T00:36:04.758Z,65.00
2023-05-16T00:38:34.882Z,65.03
2023-05-16T00:41:07.760Z,65.30
2023-05-16T00:43:43.937Z,64.96
2023-05-16T00:46:15.536Z,65.40
2023-05-16T00:48:46.881Z,65.04
2023-05-16T00:51:19.335Z,64.31
2023-05-16T00:53:51.985Z,64.81
2023-05-16T00:56:49.463Z,65.91
2023-05-16T00:59:23.816Z,64.45
2023-05-16T01:01:54.209Z,69.85
2023-05-16T01:04:24.752Z,65.20
2023-05-16T01:06:55.586Z,65.13
2023-05-16T01:09:26.129Z,65.21
2023-05-16T01:12:10.480Z,64.73
2023-05-16T01:14:50.954Z,65.27
2023-05-16T01:17:27.217Z,64.88
2023-05-16T01:20:08.454Z,65.06
2023-05-16T01:23:08.512Z,65.23
2023-05-16T01:26:01.441Z,65.46
2023-05-16T01:28:35.338Z,64.65
2023-05-16T01:31:06.728Z,64.16
2023-05-16T01:33:36.782Z,64.33
2023-05-16T01:36:14.601Z,64.04
2023-05-16T01:38:53.732Z,63.99
2023-05-16T01:41:32.979Z,63.85
2023-05-16T01:44:20.189Z,64.79
2023-05-16T01:46:52.175Z,64.60
2023-05-16T01:49:28.936Z,64.77
2023-05-16T01:52:04.080Z,64.40
2023-05-16T01:54:35.836Z,64.33
2023-05-16T01:57:08.793Z,64.34
2023-05-16T01:59:44.703Z,64.02
2023-05-16T02:02:17.103Z,64.31
2023-05-16T02:04:48.121Z,63.72
2023-05-16T02:07:22.828Z,63.84
2023-05-16T02:09:54.184Z,63.94
2023-05-16T02:12:36.556Z,63.67
2023-05-16T02:15:24.316Z,63.79
2023-05-16T02:17:58.943Z,63.57
2023-05-16T02:20:31.807Z,63.87
2023-05-16T02:23:03.385Z,64.15
2023-05-16T02:25:35.589Z,64.01
2023-05-16T02:28:06.976Z,64.14
2023-05-16T02:30:40.133Z,64.00
2023-05-16T02:33:29.222Z,63.89
2023-05-16T02:35:59.232Z,64.48
2023-05-16T02:38:29.545Z,64.23
2023-05-16T02:41:01.934Z,65.07
2023-05-16T02:43:32.265Z,65.29
2023-05-16T02:46:07.569Z,65.42
2023-05-16T02:48:37.619Z,66.35
2023-05-16T02:51:10.101Z,66.35
2023-05-16T02:53:40.402Z,66.51
2023-05-16T02:56:11.349Z,66.51
2023-05-16T02:58:44.573Z,67.05
2023-05-16T03:01:18.221Z,66.95
2023-05-16T03:03:48.484Z,67.26
2023-05-16T03:06:19.340Z,66.97
2023-05-16T03:08:49.833Z,66.55
2023-05-16T03:11:22.489Z,66.62
2023-05-16T03:13:52.527Z,66.66
2023-05-16T03:16:25.959Z,66.74
2023-05-16T03:18:55.998Z,66.64
2023-05-16T03:21:26.461Z,67.15
2023-05-16T03:23:56.915Z,67.50
2023-05-16T03:26:27.741Z,67.22
2023-05-16T03:28:59.894Z,66.82
2023-05-16T03:31:36.308Z,66.86
2023-05-16T03:34:06.388Z,67.28
2023-05-16T03:36:41.750Z,66.93
2023-05-16T03:39:13.376Z,66.63
2023-05-16T03:41:46.376Z,66.68
2023-05-16T03:44:16.329Z,66.22
2023-05-16T03:46:49.118Z,66.80
2023-05-16T03:49:21.158Z,67.03
2023-05-16T03:51:51.482Z,66.68
2023-05-16T03:54:21.573Z,66.29
2023-05-16T03:56:53.411Z,66.38
2023-05-16T03:59:26.842Z,66.41
2023-05-16T04:02:02.264Z,67.29
2023-05-16T04:04:33.324Z,66.55
2023-05-16T04:07:04.871Z,66.37
2023-05-16T04:09:35.398Z,66.32
2023-05-16T04:12:05.415Z,65.52
2023-05-16T04:14:37.970Z,65.94
2023-05-16T04:17:13.485Z,66.07
2023-05-16T04:19:43.897Z,65.76
2023-05-16T04:22:14.284Z,65.82
2023-05-16T04:24:44.355Z,65.36
2023-05-16T04:27:15.263Z,65.88
2023-05-16T04:29:48.670Z,65.94
2023-05-16T04:32:29.168Z,65.69
2023-05-16T04:35:00.247Z,66.22
2023-05-16T04:37:32.745Z,66.26
2023-05-16T04:40:02.950Z,66.39
2023-05-16T04:42:33.078Z,66.45
2023-05-16T04:45:03.976Z,66.42
2023-05-16T04:47:39.802Z,66.31
2023-05-16T04:50:12.089Z,66.09
2023-05-16T04:52:42.265Z,65.99
2023-05-16T04:55:16.394Z,65.88
2023-05-16T04:57:47.019Z,69.87
2023-05-16T05:00:18.667Z,66.04
2023-05-16T05:02:51.525Z,65.55
2023-05-16T05:05:22.045Z,65.62
2023-05-16T05:07:52.776Z,65.77
2023-05-16T05:10:23.272Z,65.47
2023-05-16T05:12:55.468Z,65.05
2023-05-16T05:15:28.242Z,65.06
2023-05-16T05:18:01.385Z,64.98
2023-05-16T05:20:33.471Z,64.87
2023-05-16T05:23:03.770Z,64.59
2023-05-16T05:25:35.813Z,64.38
2023-05-16T05:28:09.653Z,64.27
2023-05-16T05:30:42.289Z,64.33
2023-05-16T05:33:19.965Z,64.34
2023-05-16T05:35:50.162Z,64.14
2023-05-16T05:38:20.597Z,64.06
2023-05-16T05:40:53.159Z,64.03
2023-05-16T05:43:23.285Z,64.07
2023-05-16T05:45:55.678Z,63.84
2023-05-16T05:48:30.079Z,63.83
2023-05-16T05:51:00.111Z,66.00
2023-05-16T05:53:32.743Z,63.90
2023-05-16T05:56:02.980Z,63.55
2023-05-16T05:58:33.517Z,64.10
2023-05-16T06:01:04.391Z,63.77
2023-05-16T06:03:39.489Z,63.29
2023-05-16T06:06:11.578Z,62.92
2023-05-16T06:11:28.587Z,62.72
2023-05-16T06:13:58.624Z,62.77
2023-05-16T06:16:36.503Z,62.80
2023-05-16T06:19:10.076Z,62.61
2023-05-16T06:21:40.271Z,62.57
2023-05-16T06:24:12.709Z,62.54
2023-05-16T06:26:45.254Z,62.24
2023-05-16T06:29:15.379Z,62.70
2023-05-16T06:31:47.708Z,61.72
2023-05-16T06:34:29.131Z,61.32
2023-05-16T06:36:59.990Z,60.30
2023-05-16T06:39:30.322Z,59.75
2023-05-16T06:42:02.793Z,60.30
2023-05-16T06:44:39.491Z,59.81
2023-05-16T06:47:09.726Z,59.79
2023-05-16T06:49:50.938Z,59.53
2023-05-16T06:52:23.853Z,60.24
2023-05-16T06:54:55.978Z,60.19
2023-05-16T06:57:26.404Z,59.88
2023-05-16T06:59:56.541Z,59.77
2023-05-16T07:02:33.087Z,60.02
2023-05-16T07:05:09.879Z,59.93
2023-05-16T07:07:41.411Z,59.62
2023-05-16T07:10:17.498Z,59.10
2023-05-16T07:12:47.892Z,59.35
2023-05-16T07:15:21.162Z,59.47
2023-05-16T07:17:51.487Z,59.68
2023-05-16T07:20:24.280Z,58.97
2023-05-16T07:22:54.652Z,59.13
2023-05-16T07:25:28.858Z,59.02
2023-05-16T07:27:59.998Z,58.65
2023-05-16T07:30:32.749Z,58.13
2023-05-16T07:33:03.101Z,58.39
2023-05-16T07:35:39.183Z,58.46
2023-05-16T07:38:10.810Z,57.42
2023-05-16T07:40:41.292Z,57.41
2023-05-16T07:43:11.515Z,57.24
2023-05-16T07:45:49.722Z,57.17
2023-05-16T07:48:20.384Z,57.16
2023-05-16T07:50:55.906Z,56.86
2023-05-16T07:53:29.381Z,57.55
2023-05-16T07:56:11.764Z,57.50
2023-05-16T07:58:44.960Z,57.19
2023-05-16T08:01:15.082Z,56.79
2023-05-16T08:03:45.672Z,56.38
2023-05-16T08:06:18.767Z,56.35
2023-05-16T08:08:48.988Z,56.40
2023-05-16T08:11:19.404Z,56.51
2023-05-16T08:13:49.876Z,56.27
2023-05-16T08:16:20.332Z,55.93
2023-05-16T08:18:50.511Z,55.68
2023-05-16T08:21:42.112Z,56.05
2023-05-16T08:24:12.230Z,55.73
2023-05-16T08:26:54.642Z,55.66
2023-05-16T08:29:24.886Z,56.09
2023-05-16T08:31:55.142Z,55.64
2023-05-16T08:34:25.717Z,55.69
2023-05-16T08:36:58.382Z,55.03
2023-05-16T08:39:30.799Z,55.49
2023-05-16T08:42:01.065Z,55.93
2023-05-16T08:44:33.892Z,55.78
2023-05-16T08:47:16.516Z,55.73
2023-05-16T08:49:50.466Z,56.22
2023-05-16T08:52:26.513Z,56.19
2023-05-16T08:57:36.257Z,55.50
2023-05-16T09:00:12.445Z,55.60
2023-05-16T09:02:43.466Z,55.12
2023-05-16T09:05:15.229Z,55.52
2023-05-16T09:07:48.671Z,54.81
2023-05-16T09:10:19.398Z,54.84
2023-05-16T09:12:49.774Z,55.19
2023-05-16T09:15:22.756Z,54.91
2023-05-16T09:17:53.358Z,54.39
2023-05-16T09:20:24.011Z,54.57
2023-05-16T09:22:58.119Z,54.18
2023-05-16T09:25:31.412Z,53.81
2023-05-16T09:28:04.152Z,54.10
2023-05-16T09:30:35.663Z,53.69
2023-05-16T09:33:06.027Z,53.20
2023-05-16T09:35:45.043Z,53.03
2023-05-16T09:38:21.149Z,52.82
2023-05-16T09:40:51.338Z,53.91
2023-05-16T09:43:22.903Z,54.25
2023-05-16T09:45:53.670Z,53.90
2023-05-16T09:48:28.507Z,53.66
2023-05-16T09:51:05.571Z,53.53
2023-05-16T09:53:38.160Z,53.70
2023-05-16T09:56:10.571Z,53.42
2023-05-16T09:58:42.620Z,52.44
2023-05-16T10:01:14.201Z,53.02
2023-05-16T10:03:46.020Z,52.79
2023-05-16T10:06:16.793Z,52.76
2023-05-16T10:08:50.824Z,52.52
2023-05-16T10:11:22.070Z,52.45
2023-05-16T10:13:55.748Z,53.02
2023-05-16T10:16:27.380Z,52.71
2023-05-16T10:18:59.032Z,53.03
2023-05-16T10:21:31.629Z,53.40
2023-05-16T10:24:09.701Z,53.08
2023-05-16T10:26:39.802Z,53.65
2023-05-16T10:29:10.262Z,53.37
2023-05-16T10:31:41.574Z,52.22
2023-05-16T10:34:12.361Z,51.85
2023-05-16T10:36:42.918Z,51.20
2023-05-16T10:39:16.858Z,51.12
2023-05-16T10:41:47.252Z,51.12
2023-05-16T10:44:18.950Z,50.66
2023-05-16T10:46:50.559Z,49.84
2023-05-16T10:49:28.894Z,50.02
2023-05-16T10:52:08.125Z,49.96
2023-05-16T10:54:43.562Z,51.19
2023-05-16T10:57:20.144Z,51.49
2023-05-16T10:59:56.710Z,51.11
2023-05-16T11:02:33.232Z,50.59
2023-05-16T11:05:07.282Z,50.35
2023-05-16T11:07:39.092Z,50.01
2023-05-16T11:10:19.125Z,50.00
2023-05-16T11:12:55.348Z,49.80
2023-05-16T11:15:41.207Z,49.61
2023-05-16T11:18:16.041Z,50.00
2023-05-16T11:20:46.728Z,50.50
2023-05-16T11:23:29.432Z,50.32
2023-05-16T11:26:03.953Z,50.46
2023-05-16T11:28:35.978Z,50.17
2023-05-16T11:31:06.803Z,51.34
2023-05-16T11:33:37.618Z,51.33
2023-05-16T11:36:16.171Z,51.49
2023-05-16T11:38:46.881Z,51.30
2023-05-16T11:41:21.130Z,50.33
2023-05-16T11:43:51.562Z,50.28
2023-05-16T11:46:22.626Z,50.41
2023-05-16T11:48:53.364Z,50.55
2023-05-16T11:51:26.398Z,51.05
2023-05-16T11:53:56.759Z,51.08
2023-05-16T11:56:30.481Z,50.91
2023-05-16T11:59:01.042Z,50.12
2023-05-16T12:01:35.602Z,50.09
2023-05-16T12:04:12.698Z,48.81
2023-05-16T12:06:44.672Z,49.71
2023-05-16T12:09:18.702Z,50.13
2023-05-16T12:11:51.845Z,50.50
2023-05-16T12:14:23.135Z,51.36
2023-05-16T12:16:55.459Z,51.79
2023-05-16T12:19:28.232Z,51.79
2023-05-16T12:21:59.207Z,51.31
2023-05-16T12:24:35.767Z,50.33
2023-05-16T12:27:11.926Z,50.26
2023-05-16T12:29:42.021Z,49.78
2023-05-16T12:32:15.290Z,49.08
2023-05-16T12:34:52.961Z,48.17
2023-05-16T12:37:24.381Z,49.03
2023-05-16T12:39:54.465Z,50.42
2023-05-16T12:42:27.200Z,51.45
2023-05-16T12:44:59.397Z,52.58
2023-05-16T12:47:39.062Z,52.60
2023-05-16T12:50:13.415Z,52.81
2023-05-16T12:52:51.468Z,52.70
2023-05-16T12:55:22.671Z,52.86
2023-05-16T12:57:56.063Z,52.71
2023-05-16T13:00:27.476Z,52.77
2023-05-16T13:03:00.271Z,52.57
2023-05-16T13:05:32.683Z,52.39
2023-05-16T13:08:02.949Z,51.44
2023-05-16T13:10:33.159Z,51.56
2023-05-16T13:13:05.867Z,51.24
2023-05-16T13:15:36.724Z,51.12
2023-05-16T13:18:07.038Z,50.61
2023-05-16T13:20:37.298Z,50.37
2023-05-16T13:23:08.252Z,49.90
2023-05-16T13:25:40.822Z,49.55
2023-05-16T13:28:21.482Z,49.50
2023-05-16T13:30:51.750Z,49.77
2023-05-16T13:33:24.999Z,49.21
2023-05-16T13:35:55.679Z,49.14
2023-05-16T13:38:26.354Z,48.27
2023-05-16T13:40:56.531Z,48.81
2023-05-16T13:43:31.653Z,48.86
2023-05-16T13:46:04.252Z,49.51
2023-05-16T13:48:34.437Z,49.61
2023-05-16T13:51:11.851Z,49.50
2023-05-16T13:53:42.176Z,49.35
2023-05-16T13:56:17.042Z,49.20
2023-05-16T14:01:36.691Z,49.15
2023-05-16T14:04:07.253Z,49.33
2023-05-16T14:06:45.117Z,49.56
2023-05-16T14:09:24.454Z,49.50
2023-05-16T14:11:54.802Z,49.72
2023-05-16T14:14:27.806Z,50.02
2023-05-16T14:16:58.067Z,50.13
2023-05-16T14:19:28.552Z,49.89
2023-05-16T14:21:59.145Z,49.81
2023-05-16T14:24:29.550Z,50.34
2023-05-16T14:27:00.573Z,50.78
2023-05-16T14:29:33.391Z,50.66
2023-05-16T14:32:03.716Z,49.94
2023-05-16T14:34:33.831Z,49.73
2023-05-16T14:37:04.702Z,49.38
2023-05-16T14:39:36.660Z,49.52
2023-05-16T14:42:08.862Z,50.09
2023-05-16T14:44:41.937Z,49.67
2023-05-16T14:47:12.375Z,49.44
2023-05-16T14:49:42.881Z,49.40
2023-05-16T14:52:12.980Z,48.95
2023-05-16T14:54:43.473Z,48.93
2023-05-16T14:57:13.670Z,48.60
2023-05-16T14:59:47.267Z,48.46
2023-05-16T15:02:17.495Z,48.84
2023-05-16T15:04:50.181Z,49.58
2023-05-16T15:07:20.985Z,49.78
2023-05-16T15:09:51.314Z,50.18
2023-05-16T15:12:21.936Z,49.83
2023-05-16T15:14:55.413Z,50.09
2023-05-16T15:17:27.716Z,49.79
2023-05-16T15:20:00.109Z,49.95
2023-05-16T15:22:32.372Z,49.97
2023-05-16T15:25:02.685Z,50.00
2023-05-16T15:27:32.847Z,50.26
2023-05-16T15:30:06.505Z,50.04
2023-05-16T15:32:51.907Z,50.27
2023-05-16T15:35:22.149Z,50.27
2023-05-16T15:37:53.173Z,50.29
2023-05-16T15:40:27.192Z,50.50
2023-05-16T15:43:06.457Z,47.21
2023-05-16T15:45:42.391Z,50.90
2023-05-16T15:48:13.249Z,51.00
2023-05-16T15:50:43.706Z,51.04
2023-05-16T15:53:13.926Z,51.42
2023-05-16T15:55:43.984Z,51.53
2023-05-16T15:58:15.883Z,51.84
2023-05-16T16:00:48.574Z,52.27
2023-05-16T16:03:21.194Z,52.49
2023-05-16T16:05:51.774Z,52.78
2023-05-16T16:08:23.911Z,52.69
2023-05-16T16:10:54.151Z,52.48
2023-05-16T16:13:25.901Z,52.65
2023-05-16T16:15:59.152Z,52.88
2023-05-16T16:18:31.218Z,53.08
2023-05-16T16:21:01.626Z,53.23
2023-05-16T16:23:31.858Z,53.24
2023-05-16T16:26:02.825Z,52.82
2023-05-16T16:28:33.583Z,52.46
2023-05-16T16:31:21.700Z,51.33
2023-05-16T16:33:57.709Z,52.13
2023-05-16T16:36:29.757Z,52.16
2023-05-16T16:39:02.509Z,51.97
2023-05-16T16:41:32.575Z,52.14
2023-05-16T16:44:02.691Z,51.92
2023-05-16T16:46:35.560Z,51.80
2023-05-16T16:49:06.922Z,51.43
2023-05-16T16:51:39.985Z,51.75
2023-05-16T16:54:10.083Z,51.56
2023-05-16T16:56:40.191Z,51.71
2023-05-16T16:59:11.732Z,52.04
2023-05-16T17:02:03.946Z,50.93
2023-05-16T17:04:35.364Z,51.31
2023-05-16T17:07:05.661Z,51.17
2023-05-16T17:09:35.959Z,51.36
2023-05-16T17:12:08.958Z,51.18
2023-05-16T17:14:39.074Z,51.24
2023-05-16T17:17:12.578Z,51.17
2023-05-16T17:19:42.692Z,51.26
2023-05-16T17:22:12.947Z,51.01
2023-05-16T17:24:43.272Z,51.21
2023-05-16T17:27:13.921Z,51.28
2023-05-16T17:29:45.923Z,51.03
2023-05-16T17:32:20.421Z,51.06
2023-05-16T17:34:51.444Z,51.32
2023-05-16T17:37:22.551Z,51.66
2023-05-16T17:39:54.135Z,51.50
2023-05-16T17:42:30.492Z,51.76
2023-05-16T17:45:04.364Z,51.47
2023-05-16T17:47:38.284Z,51.73
2023-05-16T17:50:22.217Z,51.66
2023-05-16T17:52:54.475Z,51.74
2023-05-16T17:55:25.541Z,51.70
2023-05-16T17:57:59.587Z,51.92
2023-05-16T18:00:29.832Z,51.82
2023-05-16T18:03:07.242Z,51.87
2023-05-16T18:05:38.073Z,52.10
2023-05-16T18:08:09.480Z,51.99
2023-05-16T18:10:50.931Z,52.29
2023-05-16T18:13:24.017Z,51.99
2023-05-16T18:15:57.273Z,52.19
2023-05-16T18:18:30.862Z,52.41
2023-05-16T18:21:01.666Z,52.31
2023-05-16T18:23:32.343Z,52.46
2023-05-16T18:26:03.105Z,52.75
2023-05-16T18:28:40.392Z,52.81
2023-05-16T18:31:10.369Z,53.62
2023-05-16T18:33:43.241Z,53.07
2023-05-16T18:36:13.402Z,52.97
2023-05-16T18:38:43.636Z,53.13
2023-05-16T18:41:13.946Z,53.27
2023-05-16T18:43:44.176Z,53.43
2023-05-16T18:46:16.062Z,53.24
2023-05-16T18:48:48.974Z,53.51
2023-05-16T18:51:22.585Z,53.58
2023-05-16T18:53:52.935Z,53.68
2023-05-16T18:56:23.123Z,53.84
2023-05-16T18:58:53.354Z,53.59
2023-05-16T19:01:30.170Z,53.67
2023-05-16T19:04:03.125Z,53.88
2023-05-16T19:06:33.553Z,54.24
2023-05-16T19:09:03.880Z,54.77
2023-05-16T19:11:33.978Z,54.84
2023-05-16T19:14:04.136Z,55.12
2023-05-16T19:16:36.444Z,55.37
2023-05-16T19:19:10.025Z,55.46
2023-05-16T19:21:41.270Z,55.36
2023-05-16T19:24:12.338Z,55.59
2023-05-16T19:26:42.906Z,55.51
2023-05-16T19:29:14.100Z,55.76
2023-05-16T19:31:44.355Z,55.54
2023-05-16T19:34:26.856Z,55.42
2023-05-16T19:36:57.586Z,55.49
2023-05-16T19:39:27.831Z,55.77
2023-05-16T19:42:06.216Z,55.67
2023-05-16T19:44:39.684Z,55.80
2023-05-16T19:47:16.019Z,55.62
2023-05-16T19:49:51.019Z,55.83
2023-05-16T19:52:21.204Z,55.90
2023-05-16T19:54:51.401Z,56.14
2023-05-16T19:57:22.035Z,55.99
2023-05-16T19:59:54.772Z,56.19
2023-05-16T20:02:25.057Z,56.23
2023-05-16T20:04:57.807Z,56.22
2023-05-16T20:07:33.323Z,56.39
2023-05-16T20:10:03.445Z,56.57
2023-05-16T20:12:33.586Z,56.75
2023-05-16T20:15:05.010Z,56.50
2023-05-16T20:17:35.162Z,56.59
2023-05-16T20:20:09.523Z,56.57
2023-05-16T20:22:42.019Z,56.65
2023-05-16T20:25:14.878Z,56.82
2023-05-16T20:27:45.863Z,56.99
2023-05-16T20:30:19.978Z,57.02
2023-05-16T20:32:50.257Z,56.87
2023-05-16T20:35:25.232Z,57.19
2023-05-16T20:37:57.802Z,57.00
2023-05-16T20:40:28.204Z,57.00
2023-05-16T20:42:58.428Z,56.99
2023-05-16T20:45:31.464Z,56.82
2023-05-16T20:48:01.569Z,57.26
2023-05-16T20:50:36.249Z,57.27
2023-05-16T20:53:06.513Z,57.33
2023-05-16T20:55:36.935Z,57.73
2023-05-16T20:58:07.867Z,57.74
2023-05-16T21:00:38.129Z,58.13
2023-05-16T21:03:10.210Z,57.98
2023-05-16T21:05:44.523Z,58.11
2023-05-16T21:08:14.636Z,57.75
2023-05-16T21:10:44.798Z,58.04
2023-05-16T21:13:15.070Z,58.17
2023-05-16T21:15:45.311Z,58.27
2023-05-16T21:18:15.659Z,58.26
2023-05-16T21:20:48.390Z,58.35
2023-05-16T21:23:18.790Z,58.13
2023-05-16T21:25:49.614Z,58.31
2023-05-16T21:28:19.871Z,58.51
2023-05-16T21:30:51.236Z,58.47
2023-05-16T21:33:21.381Z,58.44
2023-05-16T21:35:55.400Z,58.13
2023-05-16T21:38:25.570Z,58.39
2023-05-16T21:40:58.726Z,58.57
2023-05-16T21:43:36.141Z,58.84
2023-05-16T21:46:07.329Z,59.01
2023-05-16T21:48:37.506Z,59.05
2023-05-16T21:51:10.381Z,59.28
2023-05-16T21:53:40.625Z,59.25
2023-05-16T21:56:11.221Z,59.47
2023-05-16T21:58:44.803Z,59.78
2023-05-16T22:01:17.112Z,59.63
2023-05-16T22:03:47.723Z,59.76
2023-05-16T22:06:20.625Z,59.63
2023-05-16T22:08:50.646Z,59.90
2023-05-16T22:11:20.731Z,59.62
2023-05-16T22:13:51.404Z,59.90
2023-05-16T22:16:21.671Z,60.12
2023-05-16T22:18:54.146Z,59.83
2023-05-16T22:21:29.760Z,59.70
2023-05-16T22:23:59.900Z,60.15
2023-05-16T22:26:46.128Z,59.92
2023-05-16T22:29:16.185Z,60.22
2023-05-16T22:31:47.039Z,60.14
2023-05-16T22:34:17.099Z,59.83
2023-05-16T22:36:50.550Z,60.29
2023-05-16T22:39:20.920Z,60.01
2023-05-16T22:41:51.732Z,60.24
2023-05-16T22:44:23.798Z,60.32
2023-05-16T22:46:54.283Z,60.46
2023-05-16T22:49:26.708Z,60.33
2023-05-16T22:51:59.332Z,60.72
2023-05-16T22:54:29.703Z,60.85
2023-05-16T22:57:00.369Z,60.87
2023-05-16T22:59:30.718Z,60.79
2023-05-16T23:02:01.189Z,60.36
2023-05-16T23:04:31.289Z,60.57
2023-05-16T23:07:04.008Z,60.68
2023-05-16T23:09:34.380Z,60.61
2023-05-16T23:12:04.614Z,60.96
2023-05-16T23:14:37.181Z,60.98
2023-05-16T23:17:08.470Z,61.17
2023-05-16T23:19:38.553Z,61.32
2023-05-16T23:22:11.705Z,60.92
2023-05-16T23:24:41.816Z,61.09
2023-05-16T23:27:11.903Z,61.06
2023-05-16T23:29:42.433Z,60.75
2023-05-16T23:32:16.769Z,61.34
2023-05-16T23:34:46.530Z,64.37
2023-05-16T23:37:19.136Z,61.52
2023-05-16T23:39:51.075Z,61.55
2023-05-16T23:42:21.366Z,61.89
2023-05-16T23:44:52.037Z,61.86
2023-05-16T23:47:22.629Z,62.12
2023-05-16T23:49:55.585Z,61.79
2023-05-16T23:52:28.262Z,62.26
2023-05-16T23:55:02.136Z,61.99
2023-05-16T23:57:32.420Z,62.19
